Time;durP1;ratioP1;P1;durP2;ratioP2;P2;SDS_P1;SDS_P2;PMS_P1;PMS_P2;Temp;Humidity;BMP_temperature;BMP_pressure;BME280_temperature;BME280_humidity;BME280_pressure;Samples;Min_cycle;Max_cycle;Signal;HPM_P1;HPM_P2
2021/12/08 00:01:39;;;;;;;9.87;5.63;;;;;;;-0.30;100.00;93722.88;5086489;28;20640;-76
2021/12/08 00:04:07;;;;;;;8.13;4.80;;;;;;;-0.26;100.00;93724.88;5089207;28;20640;-76
2021/12/08 00:06:38;;;;;;;12.00;6.30;;;;;;;-0.32;100.00;93723.06;5085845;28;20204;-76
2021/12/08 00:09:19;;;;;;;12.60;7.43;;;;;;;-0.33;100.00;93723.22;5082450;28;20208;-76
2021/12/08 00:14:33;;;;;;;9.93;5.97;;;;;;;-0.33;100.00;93729.13;5085585;28;20223;-77
2021/12/08 00:17:04;;;;;;;14.20;6.63;;;;;;;-0.25;100.00;93741.00;5087036;28;20310;-76
2021/12/08 00:19:33;;;;;;;11.20;5.43;;;;;;;-0.41;100.00;93734.31;5086822;28;20199;-75
2021/12/08 00:22:03;;;;;;;10.97;5.77;;;;;;;-0.44;100.00;93741.50;5087635;28;20212;-76
2021/12/08 00:24:31;;;;;;;8.67;5.60;;;;;;;-0.43;100.00;93748.97;5087159;28;20223;-75
2021/12/08 00:26:59;;;;;;;11.50;6.03;;;;;;;-0.39;100.00;93752.78;5080591;28;20201;-76
2021/12/08 00:29:29;;;;;;;9.83;5.43;;;;;;;-0.28;100.00;93759.19;5086596;28;20284;-76
2021/12/08 00:31:58;;;;;;;9.37;5.67;;;;;;;-0.39;100.00;93754.53;5087398;28;20293;-76
2021/12/08 00:34:27;;;;;;;9.20;5.70;;;;;;;-0.33;100.00;93758.94;5087881;28;20680;-76
2021/12/08 00:36:59;;;;;;;10.10;5.90;;;;;;;-0.28;100.00;93754.09;5087048;28;20253;-76
2021/12/08 00:39:29;;;;;;;7.37;4.60;;;;;;;-0.34;100.00;93767.53;5085103;28;20205;-75
2021/12/08 00:41:57;;;;;;;8.00;4.87;;;;;;;-0.33;100.00;93764.03;5091536;28;20303;-79
2021/12/08 00:44:25;;;;;;;9.93;6.20;;;;;;;-0.27;100.00;93763.34;5091788;28;20216;-78
2021/12/08 00:46:53;;;;;;;10.90;5.87;;;;;;;-0.18;100.00;93786.06;5091788;28;20212;-78
2021/12/08 00:49:24;;;;;;;10.43;5.90;;;;;;;-0.19;100.00;93770.91;5092303;28;20257;-76
2021/12/08 00:51:53;;;;;;;11.27;6.10;;;;;;;-0.18;100.00;93775.88;5091173;28;20830;-75
2021/12/08 00:54:23;;;;;;;12.30;6.67;;;;;;;-0.31;100.00;93780.75;5091616;28;20260;-76
2021/12/08 00:56:57;;;;;;;10.37;6.67;;;;;;;-0.30;100.00;93774.69;5091536;28;20671;-76
2021/12/08 00:59:26;;;;;;;8.17;5.27;;;;;;;-0.26;100.00;93770.03;5090657;28;20686;-76
2021/12/08 01:01:54;;;;;;;7.03;4.90;;;;;;;-0.22;100.00;93766.97;5090926;28;20201;-76
2021/12/08 01:04:23;;;;;;;9.10;5.83;;;;;;;-0.26;100.00;93775.16;5092212;28;20235;-77
2021/12/08 01:06:51;;;;;;;8.50;5.57;;;;;;;-0.31;100.00;93780.75;5089968;28;20299;-77
2021/12/08 01:09:19;;;;;;;8.30;5.47;;;;;;;-0.40;100.00;93781.00;5091842;28;20631;-77
2021/12/08 01:11:47;;;;;;;10.17;5.60;;;;;;;-0.29;100.00;93780.59;5090383;28;20199;-77
2021/12/08 01:14:18;;;;;;;7.93;5.47;;;;;;;-0.22;100.00;93789.94;5091254;28;20200;-76
2021/12/08 01:16:47;;;;;;;7.60;5.30;;;;;;;-0.21;100.00;93780.53;5090635;28;21149;-77
2021/12/08 01:19:16;;;;;;;6.23;4.90;;;;;;;-0.35;100.00;93781.28;5091537;28;20201;-76
2021/12/08 01:21:44;;;;;;;10.53;6.20;;;;;;;-0.35;100.00;93788.94;5090732;28;20304;-76
2021/12/08 01:24:13;;;;;;;9.37;6.23;;;;;;;-0.35;100.00;93787.19;5091975;28;20373;-76
2021/12/08 01:26:40;;;;;;;9.40;6.30;;;;;;;-0.36;100.00;93788.16;5090972;28;20199;-79
2021/12/08 01:29:08;;;;;;;8.80;6.40;;;;;;;-0.32;100.00;93781.75;5090753;28;20263;-77
2021/12/08 01:31:41;;;;;;;10.60;6.97;;;;;;;-0.26;100.00;93777.69;5090708;28;20672;-77
2021/12/08 01:34:09;;;;;;;9.40;6.23;;;;;;;-0.28;100.00;93785.53;5088866;28;20215;-77
2021/12/08 01:36:38;;;;;;;11.33;6.80;;;;;;;-0.27;100.00;93783.75;5090324;28;20652;-77
2021/12/08 01:39:09;;;;;;;11.47;7.40;;;;;;;-0.33;100.00;93787.81;5090924;28;20212;-77
2021/12/08 01:41:37;;;;;;;9.17;6.40;;;;;;;-0.27;100.00;93792.22;5089526;28;20208;-77
2021/12/08 01:46:55;;;;;;;12.67;7.10;;;;;;;-0.15;100.00;93784.94;5090153;28;20218;-77
2021/12/08 01:49:24;;;;;;;15.07;8.30;;;;;;;-0.14;100.00;93783.94;5090977;28;20203;-78
2021/12/08 01:51:54;;;;;;;11.30;7.67;;;;;;;-0.21;100.00;93795.84;5088475;28;20273;-77
2021/12/08 01:54:22;;;;;;;12.17;7.93;;;;;;;-0.22;100.00;93781.47;5090878;28;20615;-77
2021/12/08 01:56:51;;;;;;;13.30;7.80;;;;;;;-0.11;100.00;93804.03;5090106;28;20213;-78
2021/12/08 01:59:19;;;;;;;11.50;6.87;;;;;;;-0.19;100.00;93811.75;5090215;28;20196;-77
2021/12/08 02:01:47;;;;;;;13.53;8.60;;;;;;;-0.12;100.00;93810.09;5089318;28;20212;-77
2021/12/08 02:04:18;;;;;;;14.40;7.83;;;;;;;-0.08;100.00;93808.78;5090503;28;20204;-77
2021/12/08 02:06:48;;;;;;;16.07;8.50;;;;;;;-0.24;100.00;93811.50;5089299;28;20205;-77
2021/12/08 02:09:18;;;;;;;14.87;8.77;;;;;;;-0.30;100.00;93819.84;5090866;28;20240;-78
2021/12/08 02:11:52;;;;;;;14.83;9.03;;;;;;;-0.29;100.00;93814.53;5089803;28;20570;-78
2021/12/08 02:14:21;;;;;;;11.47;7.63;;;;;;;-0.32;100.00;93814.13;5087274;28;20278;-78
2021/12/08 02:16:52;;;;;;;18.53;10.30;;;;;;;-0.26;100.00;93824.41;5089637;28;21545;-77
2021/12/08 02:19:22;;;;;;;16.57;9.77;;;;;;;-0.25;100.00;93826.00;5090477;28;20205;-77
2021/12/08 02:21:53;;;;;;;14.83;9.70;;;;;;;-0.14;100.00;93829.91;5089423;28;20213;-77
2021/12/08 02:24:23;;;;;;;16.63;9.37;;;;;;;-0.12;100.00;93823.66;5090006;28;20304;-77
2021/12/08 02:26:53;;;;;;;14.10;9.10;;;;;;;-0.15;100.00;93815.56;5089090;28;20262;-75
2021/12/08 02:29:32;;;;;;;16.80;9.40;;;;;;;-0.13;100.00;93839.94;5089738;28;20200;-76
2021/12/08 02:32:06;;;;;;;17.67;10.03;;;;;;;-0.19;100.00;93845.75;5090207;28;20201;-76
2021/12/08 02:48:33;;;;;;;21.70;11.80;;;;;;;-0.19;100.00;93850.03;5087044;28;20269;-75
2021/12/08 02:51:03;;;;;;;23.37;12.23;;;;;;;-0.22;100.00;93846.09;5089319;28;20290;-74
2021/12/08 02:53:34;;;;;;;19.83;11.07;;;;;;;-0.31;100.00;93844.56;5088913;28;20581;-75
2021/12/08 02:56:02;;;;;;;24.47;12.53;;;;;;;-0.16;100.00;93845.41;5087956;28;20196;-74
2021/12/08 02:58:29;;;;;;;23.63;12.77;;;;;;;-0.14;100.00;93840.91;5086422;28;20211;-74
2021/12/08 03:01:01;;;;;;;23.60;12.93;;;;;;;-0.14;100.00;93843.44;5088654;28;20208;-74
2021/12/08 03:03:30;;;;;;;21.73;12.03;;;;;;;-0.23;100.00;93838.63;5088510;28;20311;-77
2021/12/08 03:05:59;;;;;;;31.37;15.63;;;;;;;-0.28;100.00;93843.41;5084783;28;20592;-77
2021/12/08 03:08:27;;;;;;;26.43;13.17;;;;;;;-0.35;100.00;93837.44;5088594;28;20205;-77
2021/12/08 03:10:58;;;;;;;26.83;13.87;;;;;;;-0.30;100.00;93843.59;5088204;28;20205;-76
2021/12/08 03:13:31;;;;;;;26.13;13.13;;;;;;;-0.37;100.00;93829.94;5088640;28;20205;-77
2021/12/08 03:15:59;;;;;;;28.30;14.23;;;;;;;-0.38;100.00;93830.91;5089505;28;20201;-78
2021/12/08 03:18:33;;;;;;;24.37;12.57;;;;;;;-0.23;100.00;93853.94;5089060;28;20205;-78
2021/12/08 03:21:02;;;;;;;27.27;14.17;;;;;;;-0.38;100.00;93835.22;5085067;28;20655;-76
2021/12/08 03:23:35;;;;;;;24.47;12.97;;;;;;;-0.19;100.00;93860.25;5088671;28;20223;-76
2021/12/08 03:26:06;;;;;;;28.50;14.90;;;;;;;-0.12;100.00;93858.63;5088104;28;20338;-76
2021/12/08 03:28:42;;;;;;;26.97;13.97;;;;;;;-0.14;100.00;93853.66;5088530;28;20200;-75
2021/12/08 03:31:15;;;;;;;29.73;15.77;;;;;;;-0.10;100.00;93865.13;5084236;28;20258;-76
2021/12/08 03:33:43;;;;;;;30.70;14.60;;;;;;;-0.06;100.00;93868.13;5087558;28;20200;-76
2021/12/08 03:36:11;;;;;;;26.73;14.03;;;;;;;-0.15;100.00;93871.72;5087796;28;20651;-75
2021/12/08 03:38:44;;;;;;;28.17;15.10;;;;;;;-0.10;100.00;93867.69;5087930;28;20226;-76
2021/12/08 03:41:14;;;;;;;27.37;13.40;;;;;;;-0.08;100.00;93870.06;5088698;28;20297;-76
2021/12/08 03:43:43;;;;;;;26.07;14.30;;;;;;;-0.12;100.00;93876.47;5088062;28;20204;-76
2021/12/08 03:46:15;;;;;;;28.37;15.57;;;;;;;-0.17;100.00;93876.97;5088889;28;20695;-76
2021/12/08 03:48:49;;;;;;;26.10;14.03;;;;;;;-0.14;100.00;93881.75;5088286;28;20216;-77
2021/12/08 03:51:19;;;;;;;28.87;15.37;;;;;;;-0.23;100.00;93880.22;5088651;28;20258;-76
2021/12/08 03:53:48;;;;;;;27.33;14.20;;;;;;;-0.30;100.00;93887.00;5087329;28;20233;-75
2021/12/08 03:56:19;;;;;;;30.90;15.70;;;;;;;-0.13;100.00;93888.44;5089051;28;20201;-76
2021/12/08 03:58:47;;;;;;;27.07;14.47;;;;;;;-0.24;100.00;93886.31;5087687;28;20196;-76
2021/12/08 04:01:19;;;;;;;28.07;15.00;;;;;;;-0.23;100.00;93887.88;5087554;28;20232;-76
2021/12/08 04:03:51;;;;;;;30.97;14.70;;;;;;;-0.32;100.00;93899.13;5087686;28;20208;-75
2021/12/08 04:06:30;;;;;;;29.83;15.27;;;;;;;-0.34;100.00;93893.38;5088816;28;20228;-78
2021/12/08 04:09:01;;;;;;;25.57;13.90;;;;;;;-0.22;100.00;93896.34;5088246;28;20571;-72
2021/12/08 04:11:30;;;;;;;25.53;14.40;;;;;;;-0.25;100.00;93904.34;5084318;28;20203;-72
2021/12/08 04:14:02;;;;;;;25.37;14.70;;;;;;;-0.20;100.00;93904.59;5087215;28;20223;-72
2021/12/08 04:16:35;;;;;;;27.57;15.77;;;;;;;-0.12;100.00;93899.47;5087847;28;20645;-72
2021/12/08 04:19:06;;;;;;;26.20;13.73;;;;;;;-0.12;100.00;93902.00;5083957;28;20647;-72
2021/12/08 04:21:37;;;;;;;28.53;15.83;;;;;;;-0.14;100.00;93894.50;5087368;28;20193;-72
2021/12/08 04:24:06;;;;;;;28.97;14.30;;;;;;;-0.10;100.00;93910.28;5084016;28;20289;-72
2021/12/08 04:26:44;;;;;;;26.57;15.13;;;;;;;-0.12;100.00;93907.13;5087094;28;20267;-71
2021/12/08 04:29:13;;;;;;;26.03;13.93;;;;;;;-0.25;100.00;93914.53;5086308;28;20204;-71
2021/12/08 04:31:44;;;;;;;28.33;15.27;;;;;;;-0.26;100.00;93911.19;5085857;28;20205;-72
2021/12/08 04:34:30;;;;;;;26.47;15.07;;;;;;;-0.19;100.00;93916.41;5086651;28;20197;-71
2021/12/08 04:37:03;;;;;;;26.17;14.60;;;;;;;-0.22;100.00;93919.31;5086213;28;20733;-71
2021/12/08 04:39:42;;;;;;;25.47;13.90;;;;;;;-0.19;100.00;93929.97;5082011;28;20208;-75
2021/12/08 04:42:16;;;;;;;26.47;13.97;;;;;;;-0.27;100.00;93935.13;5091484;28;20208;-71
2021/12/08 04:44:49;;;;;;;29.27;15.90;;;;;;;-0.39;100.00;93926.28;5084845;28;20644;-71
2021/12/08 04:47:29;;;;;;;26.90;14.07;;;;;;;-0.26;100.00;93939.25;5088402;28;20193;-71
2021/12/08 04:53:00;;;;;;;28.60;15.13;;;;;;;-0.15;100.00;93938.88;5090008;28;20235;-71
2021/12/08 05:01:29;;;;;;;29.37;15.63;;;;;;;-0.29;100.00;93954.91;5089070;28;20204;-72
2021/12/08 05:06:51;;;;;;;33.93;17.37;;;;;;;-0.35;100.00;93959.91;5074239;28;20251;-71
2021/12/08 05:09:23;;;;;;;33.27;15.33;;;;;;;-0.21;100.00;93957.44;5082556;28;20199;-72
2021/12/08 05:11:54;;;;;;;24.17;12.07;;;;;;;-0.19;100.00;93963.16;5089300;28;20271;-72
2021/12/08 05:14:28;;;;;;;26.17;12.80;;;;;;;-0.29;100.00;93965.13;5086475;28;20237;-72
2021/12/08 05:16:59;;;;;;;30.03;14.83;;;;;;;-0.33;100.00;93975.84;5089456;28;20538;-73
2021/12/08 05:19:32;;;;;;;31.87;15.63;;;;;;;-0.35;100.00;93976.03;5089405;28;20212;-72
2021/12/08 05:22:05;;;;;;;31.80;15.63;;;;;;;-0.36;100.00;93982.09;5087818;28;20203;-72
2021/12/08 05:24:38;;;;;;;35.67;17.90;;;;;;;-0.22;100.00;93988.22;5087645;28;20216;-72
2021/12/08 05:27:09;;;;;;;34.53;14.97;;;;;;;-0.33;100.00;93991.97;5091938;28;20293;-72
2021/12/08 05:29:42;;;;;;;34.43;17.80;;;;;;;-0.26;100.00;93992.84;5092385;28;20209;-72
2021/12/08 05:32:12;;;;;;;33.27;17.27;;;;;;;-0.24;100.00;93996.06;5092499;28;20683;-72
2021/12/08 05:34:43;;;;;;;28.40;14.93;;;;;;;-0.18;100.00;93994.59;5092468;28;20827;-75
2021/12/08 05:37:14;;;;;;;31.63;16.13;;;;;;;-0.21;100.00;93990.63;5092274;28;20241;-70
2021/12/08 05:39:42;;;;;;;32.17;15.30;;;;;;;-0.24;100.00;94002.91;5092504;28;20261;-71
2021/12/08 05:42:15;;;;;;;25.80;12.60;;;;;;;-0.34;100.00;93992.91;5092164;28;20209;-71
2021/12/08 05:44:46;;;;;;;31.53;16.47;;;;;;;-0.45;100.00;93997.59;5092414;28;20623;-71
2021/12/08 05:47:18;;;;;;;33.23;15.73;;;;;;;-0.35;100.00;94004.09;5092608;28;20670;-71
2021/12/08 05:49:46;;;;;;;35.27;17.77;;;;;;;-0.38;100.00;94017.19;5092096;28;20227;-71
2021/12/08 05:52:15;;;;;;;40.23;17.63;;;;;;;-0.37;100.00;94015.41;5091998;28;20220;-71
2021/12/08 05:54:46;;;;;;;34.67;17.83;;;;;;;-0.36;100.00;94014.47;5091429;28;20236;-72
2021/12/08 05:57:18;;;;;;;37.10;17.90;;;;;;;-0.34;100.00;94008.22;5085388;28;20193;-72
2021/12/08 05:59:51;;;;;;;32.77;17.13;;;;;;;-0.43;100.00;94016.88;5091123;28;20875;-72
2021/12/08 06:02:22;;;;;;;37.20;15.97;;;;;;;-0.34;100.00;94018.44;5092002;28;20201;-71
2021/12/08 06:04:51;;;;;;;30.67;16.53;;;;;;;-0.43;100.00;94021.22;5092036;28;20205;-71
2021/12/08 06:07:21;;;;;;;33.43;16.77;;;;;;;-0.40;100.00;94025.94;5092000;28;20220;-71
2021/12/08 06:09:50;;;;;;;39.93;19.73;;;;;;;-0.42;100.00;94028.69;5085385;28;20288;-72
2021/12/08 06:12:18;;;;;;;38.07;18.63;;;;;;;-0.41;100.00;94034.59;5085285;28;20616;-72
2021/12/08 06:14:53;;;;;;;35.57;18.20;;;;;;;-0.49;100.00;94037.94;5084981;28;20205;-77
2021/12/08 06:17:22;;;;;;;37.80;18.90;;;;;;;-0.34;100.00;94049.06;5091739;28;20196;-73
2021/12/08 06:19:52;;;;;;;39.50;19.00;;;;;;;-0.31;100.00;94048.72;5092035;28;20228;-72
2021/12/08 06:22:22;;;;;;;44.70;21.40;;;;;;;-0.26;100.00;94051.56;5091672;28;20200;-73
2021/12/08 06:24:50;;;;;;;42.80;21.57;;;;;;;-0.27;100.00;94044.09;5091848;28;20207;-73
2021/12/08 06:27:17;;;;;;;47.50;23.03;;;;;;;-0.23;100.00;94051.22;5091676;28;20256;-71
2021/12/08 06:29:48;;;;;;;45.67;22.40;;;;;;;-0.24;100.00;94057.31;5092012;28;20296;-72
2021/12/08 06:32:24;;;;;;;42.33;20.43;;;;;;;-0.20;100.00;94065.41;5081507;28;20228;-72
2021/12/08 06:34:56;;;;;;;38.60;18.23;;;;;;;-0.15;100.00;94065.72;5088940;28;20560;-71
2021/12/08 06:37:29;;;;;;;28.93;13.20;;;;;;;-0.18;100.00;94071.16;5088142;28;20224;-72
2021/12/08 06:40:02;;;;;;;29.10;14.13;;;;;;;-0.06;100.00;94075.72;5090751;28;20200;-71
2021/12/08 06:42:36;;;;;;;28.77;14.37;;;;;;;-0.13;100.00;94062.03;5091191;28;20279;-71
2021/12/08 06:45:11;;;;;;;25.67;14.27;;;;;;;-0.11;100.00;94060.09;5091698;28;20203;-72
2021/12/08 06:47:40;;;;;;;27.10;13.23;;;;;;;-0.20;100.00;94040.69;5091265;28;20761;-73
2021/12/08 06:50:16;;;;;;;23.93;13.57;;;;;;;-0.13;100.00;94064.59;5091259;28;20236;-72
2021/12/08 06:52:46;;;;;;;22.60;12.37;;;;;;;-0.22;100.00;94063.03;5091451;28;20247;-72
2021/12/08 06:55:19;;;;;;;24.17;13.03;;;;;;;-0.24;100.00;94051.41;5090909;28;20225;-74
2021/12/08 06:57:50;;;;;;;27.83;13.17;;;;;;;-0.27;100.00;94065.31;5090986;28;20193;-72
2021/12/08 07:00:36;;;;;;;24.47;12.07;;;;;;;-0.25;100.00;94049.81;5090509;28;20208;-72
2021/12/08 07:03:29;;;;;;;26.27;13.30;;;;;;;-0.30;100.00;94052.88;5091139;28;20204;-73
2021/12/08 07:06:18;;;;;;;25.30;12.17;;;;;;;-0.33;100.00;94054.97;5090059;28;20221;-72
2021/12/08 07:08:50;;;;;;;27.60;14.13;;;;;;;-0.35;100.00;94062.81;5090798;28;20208;-72
2021/12/08 07:11:22;;;;;;;27.97;13.00;;;;;;;-0.36;100.00;94063.75;5090899;28;20287;-72
2021/12/08 07:13:57;;;;;;;23.77;13.70;;;;;;;-0.33;100.00;94077.94;5090726;28;20283;-73
2021/12/08 07:16:32;;;;;;;27.73;15.37;;;;;;;-0.30;100.00;94063.09;5090492;28;20210;-72
2021/12/08 07:19:09;;;;;;;28.10;14.07;;;;;;;-0.33;100.00;94073.63;5090538;28;20199;-72
2021/12/08 07:21:40;;;;;;;25.20;14.27;;;;;;;-0.31;100.00;94073.44;5090928;28;20587;-72
2021/12/08 07:24:14;;;;;;;31.33;16.27;;;;;;;-0.32;100.00;94092.28;5090890;28;20197;-71
2021/12/08 07:26:42;;;;;;;30.13;15.37;;;;;;;-0.25;100.00;94083.00;5090402;28;20262;-71
2021/12/08 07:29:16;;;;;;;32.73;16.27;;;;;;;-0.22;100.00;94091.13;5090524;28;20200;-72
2021/12/08 07:31:53;;;;;;;27.90;14.57;;;;;;;-0.22;100.00;94096.22;5090396;28;20196;-73
2021/12/08 07:34:25;;;;;;;38.00;18.97;;;;;;;-0.12;100.00;94085.81;5090935;28;20617;-73
2021/12/08 07:36:59;;;;;;;38.13;19.93;;;;;;;-0.15;100.00;94091.25;5089959;28;20193;-73
2021/12/08 07:39:32;;;;;;;38.50;18.43;;;;;;;-0.18;100.00;94096.69;5090454;28;20652;-72
2021/12/08 07:42:03;;;;;;;29.83;14.87;;;;;;;-0.18;100.00;94105.16;5090701;28;20212;-73
2021/12/08 07:44:33;;;;;;;30.07;15.73;;;;;;;-0.16;100.00;94102.41;5090741;28;20261;-72
2021/12/08 07:47:09;;;;;;;31.43;17.13;;;;;;;-0.27;100.00;94106.16;5090238;28;20282;-72
2021/12/08 07:49:43;;;;;;;28.70;15.50;;;;;;;-0.25;100.00;94114.41;5089524;28;20234;-72
2021/12/08 07:52:16;;;;;;;28.00;15.50;;;;;;;-0.28;100.00;94119.06;5089914;28;20196;-72
2021/12/08 07:54:45;;;;;;;30.10;16.30;;;;;;;-0.18;100.00;94122.22;5089847;28;20274;-72
2021/12/08 07:57:21;;;;;;;30.27;16.27;;;;;;;-0.09;100.00;94123.78;5090166;28;20283;-72
2021/12/08 07:59:53;;;;;;;26.90;14.03;;;;;;;-0.26;100.00;94109.50;5086217;28;20199;-72
2021/12/08 08:02:25;;;;;;;27.40;14.57;;;;;;;-0.20;100.00;94121.56;5089842;28;20243;-72
2021/12/08 08:04:57;;;;;;;26.70;14.97;;;;;;;-0.05;100.00;94125.81;5083470;28;20213;-72
2021/12/08 08:07:26;;;;;;;29.10;16.20;;;;;;;0.00;100.00;94140.66;5090019;28;20221;-79
2021/12/08 08:10:00;;;;;;;30.80;15.63;;;;;;;-0.08;100.00;94128.72;5090264;28;20208;-76
2021/12/08 08:12:37;;;;;;;30.17;14.43;;;;;;;-0.14;100.00;94144.69;5089764;28;20196;-78
2021/12/08 08:15:12;;;;;;;28.90;14.90;;;;;;;-0.22;100.00;94146.47;5090596;28;20204;-83
2021/12/08 08:17:46;;;;;;;36.40;15.87;;;;;;;-0.17;100.00;94155.22;5086928;28;20275;-82
2021/12/08 08:20:21;;;;;;;37.27;18.63;;;;;;;-0.17;100.00;94144.22;5082487;28;20283;-81
2021/12/08 08:22:50;;;;;;;38.73;19.57;;;;;;;-0.23;100.00;94144.91;5090341;28;20253;-82
2021/12/08 08:25:25;;;;;;;34.50;16.60;;;;;;;-0.20;100.00;94158.09;5090455;28;20207;-81
2021/12/08 08:27:54;;;;;;;26.00;14.37;;;;;;;-0.25;100.00;94141.69;5090114;28;20228;-83
2021/12/08 08:30:25;;;;;;;26.93;15.67;;;;;;;-0.24;100.00;94149.22;5084501;28;20590;-82
2021/12/08 08:32:59;;;;;;;33.47;16.77;;;;;;;-0.23;100.00;94144.91;5090536;28;20209;-82
2021/12/08 08:35:34;;;;;;;26.53;13.80;;;;;;;-0.25;100.00;94151.91;5090406;28;20201;-81
2021/12/08 08:38:07;;;;;;;28.57;15.47;;;;;;;-0.20;100.00;94145.34;5090344;28;20287;-82
2021/12/08 08:40:46;;;;;;;30.47;16.27;;;;;;;-0.38;100.00;94137.13;5088552;28;20227;-86
2021/12/08 08:43:17;;;;;;;26.33;14.47;;;;;;;-0.73;100.00;94078.88;5083264;28;20204;-83
2021/12/08 08:45:51;;;;;;;30.73;16.17;;;;;;;-0.50;100.00;94105.28;5090469;28;20242;-83
2021/12/08 08:48:27;;;;;;;35.23;17.83;;;;;;;-0.16;100.00;94156.84;5083366;28;20212;-82
2021/12/08 08:51:01;;;;;;;33.07;17.40;;;;;;;-0.15;100.00;94142.31;5084061;28;20556;-83
2021/12/08 08:53:34;;;;;;;27.93;15.20;;;;;;;-0.14;100.00;94137.03;5078108;28;20722;-83
2021/12/08 08:56:09;;;;;;;29.50;14.90;;;;;;;-0.01;100.00;94144.16;5090297;28;20197;-82
2021/12/08 08:58:42;;;;;;;29.33;15.30;;;;;;;-0.08;100.00;94141.47;5087924;28;20300;-82
2021/12/08 09:01:16;;;;;;;38.90;17.77;;;;;;;-0.03;100.00;94144.31;5080729;28;20612;-82
2021/12/08 09:03:55;;;;;;;30.53;15.87;;;;;;;-0.01;100.00;94142.41;5087669;28;20270;-82
2021/12/08 09:06:30;;;;;;;33.43;16.43;;;;;;;0.02;100.00;94132.81;5093247;28;20643;-81
2021/12/08 09:09:02;;;;;;;33.27;18.97;;;;;;;0.09;100.00;94129.41;5094000;28;20243;-81
2021/12/08 09:11:34;;;;;;;35.17;17.93;;;;;;;0.13;100.00;94125.59;5087862;28;20204;-81
2021/12/08 09:14:09;;;;;;;40.10;18.87;;;;;;;0.16;100.00;94122.69;5093730;28;20196;-80
2021/12/08 09:16:45;;;;;;;35.10;19.03;;;;;;;0.16;100.00;94130.34;5094242;28;20225;-81
2021/12/08 09:19:20;;;;;;;32.63;16.10;;;;;;;0.16;100.00;94121.88;5093881;28;20736;-80
2021/12/08 09:22:00;;;;;;;30.67;17.10;;;;;;;0.21;100.00;94111.97;5093944;28;20209;-82
2021/12/08 09:24:37;;;;;;;37.87;18.73;;;;;;;0.28;100.00;94103.47;5093854;28;20236;-81
2021/12/08 09:27:11;;;;;;;43.70;21.13;;;;;;;0.36;100.00;94095.75;5081352;28;20209;-83
2021/12/08 09:29:45;;;;;;;43.43;22.47;;;;;;;0.42;100.00;94100.19;5086028;28;20197;-83
2021/12/08 09:32:20;;;;;;;40.10;22.10;;;;;;;0.46;100.00;94106.53;5083048;28;20284;-84
2021/12/08 09:34:56;;;;;;;39.10;22.30;;;;;;;0.66;100.00;94090.75;5094177;28;20212;-83
2021/12/08 09:37:28;;;;;;;44.03;21.73;;;;;;;0.78;100.00;94100.38;5093688;28;20200;-83
2021/12/08 09:39:59;;;;;;;46.90;24.27;;;;;;;0.83;100.00;94095.56;5094419;28;20199;-83
2021/12/08 09:42:34;;;;;;;41.37;23.87;;;;;;;0.99;100.00;94095.41;5095312;28;20240;-84
2021/12/08 09:45:14;;;;;;;52.23;26.43;;;;;;;1.18;100.00;94098.44;5104793;28;20206;-83
2021/12/08 09:47:46;;;;;;;42.90;23.83;;;;;;;1.29;100.00;94096.25;5086293;28;20206;-78
2021/12/08 09:50:17;;;;;;;41.13;23.73;;;;;;;1.33;100.00;94091.59;5092927;28;20642;-78
2021/12/08 09:52:47;;;;;;;37.80;22.20;;;;;;;1.43;100.00;94094.66;5092892;28;20675;-77
2021/12/08 09:55:19;;;;;;;38.53;22.07;;;;;;;1.36;100.00;94091.22;5092427;28;20239;-77
2021/12/08 09:57:50;;;;;;;45.90;23.53;;;;;;;1.37;100.00;94091.06;5092852;28;20625;-78
2021/12/08 10:00:23;;;;;;;38.37;21.70;;;;;;;1.40;100.00;94089.91;5092549;28;20686;-77
2021/12/08 10:02:58;;;;;;;36.77;21.27;;;;;;;1.55;100.00;94093.25;5092790;28;20197;-78
2021/12/08 10:05:29;;;;;;;37.67;21.20;;;;;;;1.59;100.00;94094.47;5085826;28;20199;-78
2021/12/08 10:07:59;;;;;;;38.13;19.83;;;;;;;1.64;100.00;94084.53;5091976;28;20239;-78
2021/12/08 10:10:31;;;;;;;32.20;17.27;;;;;;;1.69;100.00;94092.47;5092129;28;20236;-78
2021/12/08 10:13:00;;;;;;;27.63;15.83;;;;;;;1.71;100.00;94101.53;5091313;28;20307;-79
2021/12/08 10:15:32;;;;;;;28.23;15.67;;;;;;;1.67;100.00;94081.63;5093269;28;20758;-82
2021/12/08 10:18:10;;;;;;;30.00;15.83;;;;;;;1.89;100.00;94101.19;5085297;28;20217;-76
2021/12/08 10:20:46;;;;;;;28.33;16.07;;;;;;;1.87;100.00;94103.13;5092386;28;20220;-77
2021/12/08 10:23:24;;;;;;;26.03;15.40;;;;;;;1.73;100.00;94106.50;5092796;28;20570;-77
2021/12/08 10:25:55;;;;;;;26.30;15.13;;;;;;;1.73;100.00;94095.47;5092254;28;20206;-78
2021/12/08 10:28:30;;;;;;;29.40;16.70;;;;;;;1.64;100.00;94087.09;5091951;28;20298;-77
2021/12/08 10:31:09;;;;;;;34.77;18.17;;;;;;;1.60;100.00;94084.06;5090906;28;20657;-76
2021/12/08 10:34:00;;;;;;;29.20;16.23;;;;;;;1.65;100.00;94086.91;5092032;28;20203;-77
2021/12/08 10:36:46;;;;;;;30.00;16.83;;;;;;;1.73;100.00;94087.78;5088535;28;20204;-77
2021/12/08 10:39:33;;;;;;;29.17;15.23;;;;;;;1.90;100.00;94078.94;5091615;28;20559;-77
2021/12/08 10:42:08;;;;;;;29.93;16.23;;;;;;;1.94;100.00;94080.13;5086714;28;20196;-77
2021/12/08 10:44:44;;;;;;;33.20;17.50;;;;;;;2.00;100.00;94084.56;5091900;28;20206;-77
2021/12/08 10:47:17;;;;;;;37.50;20.43;;;;;;;2.11;100.00;94082.31;5091606;28;20240;-77
2021/12/08 10:55:33;;;;;;;31.13;18.50;;;;;;;2.27;100.00;94079.56;5091602;28;20199;-77
2021/12/08 10:58:04;;;;;;;33.63;17.33;;;;;;;2.20;100.00;94090.69;5091084;28;20629;-79
2021/12/08 11:00:37;;;;;;;35.90;19.87;;;;;;;2.14;100.00;94083.72;5091362;28;20205;-77
2021/12/08 11:03:09;;;;;;;33.17;18.23;;;;;;;2.10;100.00;94085.06;5091252;28;20203;-78
2021/12/08 11:05:45;;;;;;;30.40;17.63;;;;;;;2.40;100.00;94083.19;5077940;28;20196;-77
2021/12/08 11:08:20;;;;;;;29.13;16.30;;;;;;;2.86;100.00;94085.22;5090683;28;20208;-77
2021/12/08 11:10:53;;;;;;;26.60;15.87;;;;;;;3.08;100.00;94087.75;5091181;28;20213;-77
2021/12/08 11:13:30;;;;;;;29.57;15.77;;;;;;;3.01;100.00;94071.50;5091218;28;20207;-77
2021/12/08 11:16:07;;;;;;;32.53;16.97;;;;;;;2.98;100.00;94095.78;5091388;28;20204;-77
2021/12/08 11:18:39;;;;;;;32.83;16.37;;;;;;;2.76;100.00;94099.34;5090622;28;20677;-77
2021/12/08 11:21:15;;;;;;;29.10;15.90;;;;;;;2.82;100.00;94104.53;5090985;28;20201;-77
2021/12/08 11:23:49;;;;;;;30.17;18.03;;;;;;;2.81;100.00;94099.56;5090827;28;20214;-77
2021/12/08 11:26:23;;;;;;;33.47;18.00;;;;;;;2.71;100.00;94097.31;5090776;28;20199;-77
2021/12/08 11:29:03;;;;;;;28.67;16.40;;;;;;;3.16;100.00;94106.38;5091259;28;20508;-78
2021/12/08 11:31:37;;;;;;;24.47;15.37;;;;;;;3.34;100.00;94104.16;5089855;28;20213;-77
2021/12/08 11:34:10;;;;;;;26.57;17.00;;;;;;;3.69;100.00;94104.16;5090602;28;20200;-78
2021/12/08 11:36:41;;;;;;;23.93;14.40;;;;;;;4.63;100.00;94116.19;5090133;28;20671;-78
2021/12/08 11:39:15;;;;;;;25.80;14.53;;;;;;;6.11;96.03;94108.78;5090760;28;21259;-77
2021/12/08 11:41:47;;;;;;;23.20;14.00;;;;;;;6.65;91.18;94114.31;5090660;28;20638;-77
2021/12/08 11:44:18;;;;;;;22.63;14.30;;;;;;;6.61;89.13;94109.78;5090920;28;20205;-77
2021/12/08 11:46:49;;;;;;;20.43;13.27;;;;;;;6.53;88.04;94113.38;5090406;28;20192;-77
2021/12/08 11:49:18;;;;;;;21.60;12.87;;;;;;;6.40;88.57;94116.03;5090373;28;20313;-78
2021/12/08 11:52:00;;;;;;;27.03;15.80;;;;;;;6.26;88.03;94119.66;5090200;28;20207;-78
2021/12/08 11:54:39;;;;;;;23.93;14.90;;;;;;;5.68;89.78;94122.13;5090289;28;20350;-76
2021/12/08 11:57:11;;;;;;;21.83;13.60;;;;;;;4.91;93.06;94119.41;5090691;28;20288;-76
2021/12/08 12:00:07;;;;;;;23.00;14.13;;;;;;;4.09;96.90;94113.66;5090420;28;20687;-77
2021/12/08 12:02:45;;;;;;;25.43;14.83;;;;;;;3.61;98.95;94099.19;5085128;28;20201;-77
2021/12/08 12:05:19;;;;;;;28.30;15.93;;;;;;;3.31;100.00;94117.34;5090474;28;20204;-77
2021/12/08 12:07:51;;;;;;;28.03;16.50;;;;;;;3.09;100.00;94108.09;5090172;28;20281;-77
2021/12/08 12:10:25;;;;;;;29.37;16.40;;;;;;;2.77;100.00;94085.53;5090467;28;20257;-77
2021/12/08 12:12:57;;;;;;;25.13;15.67;;;;;;;2.82;100.00;94109.66;5090175;28;20192;-78
2021/12/08 12:15:26;;;;;;;25.57;15.73;;;;;;;2.53;100.00;94106.41;5090485;28;20287;-77